To NAV CANADA Home Page Login to a new session Search on AWWS site Feedback and Comments Disclaimer Vers la page française équivalente Tips FAQ What's new on the site To the Forecasts and Observations / NOTAM section To "File a Flight Plan" website Publications and other links Update of the User's profile FIC Telephone Numbers My Weather Data Folder Route Weather Data Regional Weather Data Local Weather Data To the Forecasts and Observations / NOTAM section
Request Generated 02/09/2016 at 00:58:26 UTC . Weather information available at that time is displayed.

METAR/TAF

MONTREAL/ST-HUBERT/QC    (show WxCam)

METAR CYHU 090000Z AUTO 05013G19KT 9SM OVC095 M07/M13 A2990 RMK
SLP127=
METAR CYHU 082300Z AUTO 05011G19KT 9SM OVC090 M07/M13 A2990 RMK
SLP128=
METAR CYHU 082200Z AUTO 05013G19KT 9SM OVC110 M07/M13 A2991 RMK
SLP130=

TAF CYHU 082338Z 0900/0924 05015G25KT P6SM OVC100
FM090300 05015G25KT P6SM OVC070 TEMPO 0903/0906 5SM -SHSN
FM090600 04012KT 21/2SM -SN BKN020 OVC070
BECMG 0910/0912 05010G20KT
FM092000 05010KT 6SM -SN BKN020 OVC040
RMK FCST BASED ON AUTO OBS. NXT FCST BY 090600Z=
Your time UTC time
Weather data provided by Environment Canada and NAV CANADA